Time;durP1;ratioP1;P1;durP2;ratioP2;P2;SDS_P1;SDS_P2;PMS_P1;PMS_P2;Temp;Humidity;BMP_temperature;BMP_pressure;BME280_temperature;BME280_humidity;BME280_pressure;Samples;Min_cycle;Max_cycle;Signal;HPM_P1;HPM_P2
2021/07/06 00:00:13;;;;;;;;;;;;;;;21.18;100.00;98161.41;5025774;28;19917;-68
2021/07/06 00:02:39;;;;;;;;;;;;;;;21.27;100.00;98150.09;5025624;28;19925;-68
2021/07/06 00:05:04;;;;;;;;;;;;;;;21.25;100.00;98159.88;5006775;28;19971;-68
2021/07/06 00:07:30;;;;;;;;;;;;;;;21.18;100.00;98158.78;5006585;28;20668;-68
2021/07/06 00:09:56;;;;;;;;;;;;;;;21.00;100.00;98163.03;5024337;28;19964;-68
2021/07/06 00:12:21;;;;;;;;;;;;;;;21.28;100.00;98151.78;5024212;28;19960;-68
2021/07/06 00:14:48;;;;;;;;;;;;;;;21.26;100.00;98156.31;5023273;28;20035;-68
2021/07/06 00:17:13;;;;;;;;;;;;;;;21.19;100.00;98152.59;5006947;28;19921;-68
2021/07/06 00:19:39;;;;;;;;;;;;;;;21.23;100.00;98159.22;5006314;28;20651;-68
2021/07/06 00:22:04;;;;;;;;;;;;;;;21.21;100.00;98153.31;5006218;28;19917;-68
2021/07/06 00:24:30;;;;;;;;;;;;;;;21.09;100.00;98152.56;5004613;28;19937;-68
2021/07/06 00:26:55;;;;;;;;;;;;;;;21.00;100.00;98152.56;5005512;28;20390;-68
2021/07/06 00:29:21;;;;;;;;;;;;;;;21.36;100.00;98147.63;5024831;28;20732;-68
2021/07/06 00:31:46;;;;;;;;;;;;;;;20.98;100.00;98155.34;5008132;28;20589;-68
2021/07/06 00:34:11;;;;;;;;;;;;;;;21.23;100.00;98154.00;5024899;28;19921;-68
2021/07/06 00:36:37;;;;;;;;;;;;;;;21.64;100.00;98156.47;5008039;28;19979;-67
2021/07/06 00:39:02;;;;;;;;;;;;;;;21.59;100.00;98145.59;5008231;28;19928;-67
2021/07/06 00:41:28;;;;;;;;;;;;;;;21.46;100.00;98143.25;5025225;28;19921;-68
2021/07/06 00:43:53;;;;;;;;;;;;;;;21.19;100.00;98136.91;5025847;28;19921;-67
2021/07/06 00:46:19;;;;;;;;;;;;;;;21.10;100.00;98135.09;5025693;28;19927;-67
2021/07/06 00:48:44;;;;;;;;;;;;;;;21.40;100.00;98133.31;5007412;28;20000;-67
2021/07/06 00:51:09;;;;;;;;;;;;;;;21.14;100.00;98133.03;5008457;28;20363;-68
2021/07/06 00:53:35;;;;;;;;;;;;;;;21.13;100.00;98139.22;5025371;28;19925;-68
2021/07/06 00:56:00;;;;;;;;;;;;;;;21.42;100.00;98134.03;5026179;28;20417;-68
2021/07/06 00:58:26;;;;;;;;;;;;;;;21.24;100.00;98139.91;5008135;28;19971;-68
2021/07/06 01:00:52;;;;;;;;;;;;;;;21.44;100.00;98134.69;5008477;28;19983;-68
2021/07/06 01:03:17;;;;;;;;;;;;;;;21.20;100.00;98128.06;4992213;28;19968;-68
2021/07/06 01:05:43;;;;;;;;;;;;;;;21.13;100.00;98123.53;5025590;28;20419;-68
2021/07/06 01:08:08;;;;;;;;;;;;;;;21.17;100.00;98123.13;4990355;28;19925;-67
2021/07/06 01:10:34;;;;;;;;;;;;;;;21.22;100.00;98128.75;5008109;28;19921;-67
2021/07/06 01:12:59;;;;;;;;;;;;;;;21.36;100.00;98137.16;5025608;28;19917;-67
2021/07/06 01:15:26;;;;;;;;;;;;;;;21.25;100.00;98141.56;4991253;28;19999;-67
2021/07/06 01:17:57;;;;;;;;;;;;;;;21.22;100.00;98141.84;5007769;28;19921;-68
2021/07/06 01:20:23;;;;;;;;;;;;;;;21.35;100.00;98140.72;5024225;28;19965;-68
2021/07/06 01:22:49;;;;;;;;;;;;;;;21.07;100.00;98138.81;5025247;28;19971;-68
2021/07/06 01:25:14;;;;;;;;;;;;;;;21.43;100.00;98138.28;5007309;28;19968;-68
2021/07/06 01:27:40;;;;;;;;;;;;;;;20.97;100.00;98143.22;5006657;28;19929;-68
2021/07/06 01:30:09;;;;;;;;;;;;;;;20.93;100.00;98136.59;4991277;28;19916;-68
2021/07/06 01:32:34;;;;;;;;;;;;;;;20.92;100.00;98134.13;5007157;28;20494;-68
2021/07/06 01:35:00;;;;;;;;;;;;;;;20.88;100.00;98129.13;5024651;28;19995;-67
2021/07/06 01:37:25;;;;;;;;;;;;;;;20.80;100.00;98115.06;5006476;28;19939;-68
2021/07/06 01:39:51;;;;;;;;;;;;;;;21.10;100.00;98108.91;5006735;28;19927;-67
2021/07/06 01:42:19;;;;;;;;;;;;;;;20.92;100.00;98105.34;5024019;28;19963;-68
2021/07/06 01:44:45;;;;;;;;;;;;;;;20.65;100.00;98105.00;5024762;28;19917;-68
2021/07/06 01:47:10;;;;;;;;;;;;;;;20.80;100.00;98100.22;5024639;28;19921;-68
2021/07/06 01:49:36;;;;;;;;;;;;;;;20.84;100.00;98109.44;5024471;28;19921;-68
2021/07/06 01:52:01;;;;;;;;;;;;;;;20.70;100.00;98098.53;5024367;28;19935;-68
2021/07/06 01:54:27;;;;;;;;;;;;;;;20.83;100.00;98089.47;5007262;28;20359;-68
2021/07/06 01:56:52;;;;;;;;;;;;;;;21.09;100.00;98074.03;4991344;28;19944;-68
2021/07/06 01:59:18;;;;;;;;;;;;;;;20.72;100.00;98081.75;5007189;28;20242;-68
2021/07/06 02:01:43;;;;;;;;;;;;;;;20.98;100.00;98078.59;5024466;28;19924;-68
2021/07/06 02:04:09;;;;;;;;;;;;;;;20.61;100.00;98074.00;5006748;28;19973;-67
2021/07/06 02:06:35;;;;;;;;;;;;;;;20.79;100.00;98059.28;5024527;28;19935;-68
2021/07/06 02:09:00;;;;;;;;;;;;;;;21.04;100.00;98057.09;5025029;28;19968;-68
2021/07/06 02:11:26;;;;;;;;;;;;;;;21.29;100.00;98051.28;5024397;28;19945;-68
2021/07/06 02:13:52;;;;;;;;;;;;;;;21.11;100.00;98039.88;5007517;28;19921;-68
2021/07/06 02:16:18;;;;;;;;;;;;;;;20.67;100.00;98045.53;4991507;28;20398;-68
2021/07/06 02:18:43;;;;;;;;;;;;;;;20.66;100.00;98045.66;5023024;28;19927;-68
2021/07/06 02:21:09;;;;;;;;;;;;;;;20.37;100.00;98041.19;5023890;28;20382;-68
2021/07/06 02:23:35;;;;;;;;;;;;;;;20.65;100.00;98036.16;5024855;28;19974;-68
2021/07/06 02:26:01;;;;;;;;;;;;;;;20.96;100.00;98041.25;5024424;28;19921;-68
2021/07/06 02:28:27;;;;;;;;;;;;;;;20.68;100.00;98041.09;5024802;28;19948;-68
2021/07/06 02:30:52;;;;;;;;;;;;;;;20.35;100.00;98032.66;5022797;28;19956;-68
2021/07/06 02:33:17;;;;;;;;;;;;;;;20.37;100.00;98035.94;5023574;28;19960;-68
2021/07/06 02:35:43;;;;;;;;;;;;;;;20.67;100.00;98036.84;5006164;28;19924;-68
2021/07/06 02:38:08;;;;;;;;;;;;;;;20.52;100.00;98038.19;5024651;28;19979;-68
2021/07/06 02:40:34;;;;;;;;;;;;;;;20.45;100.00;98027.41;5024847;28;20860;-68
2021/07/06 02:42:59;;;;;;;;;;;;;;;20.35;100.00;98030.03;5006790;28;20506;-68
2021/07/06 02:45:25;;;;;;;;;;;;;;;20.54;100.00;98031.03;5024665;28;20003;-68
2021/07/06 02:47:51;;;;;;;;;;;;;;;20.36;100.00;98029.06;5024310;28;19936;-68
2021/07/06 02:50:17;;;;;;;;;;;;;;;20.17;100.00;98023.78;5007211;28;19921;-68
2021/07/06 02:52:43;;;;;;;;;;;;;;;20.26;100.00;98025.59;5024630;28;19978;-68
2021/07/06 02:55:09;;;;;;;;;;;;;;;20.35;100.00;98014.34;5007111;28;20260;-68
2021/07/06 02:57:35;;;;;;;;;;;;;;;20.11;100.00;98029.53;5006730;28;19932;-68
2021/07/06 03:00:03;;;;;;;;;;;;;;;20.55;100.00;98032.66;5024143;28;19917;-68
2021/07/06 03:02:28;;;;;;;;;;;;;;;20.42;100.00;98030.31;5023915;28;20642;-68
2021/07/06 03:04:54;;;;;;;;;;;;;;;20.44;100.00;98031.00;5020817;28;20008;-68
2021/07/06 03:07:19;;;;;;;;;;;;;;;20.68;100.00;98023.63;5023727;28;20413;-67
2021/07/06 03:09:45;;;;;;;;;;;;;;;20.30;100.00;98031.38;5023438;28;20602;-67
2021/07/06 03:12:10;;;;;;;;;;;;;;;20.48;100.00;98033.22;5024150;28;19924;-67
2021/07/06 03:14:35;;;;;;;;;;;;;;;20.61;100.00;98032.97;5005852;28;19917;-67
2021/07/06 03:17:01;;;;;;;;;;;;;;;20.42;100.00;98022.47;5023818;28;20910;-68
2021/07/06 03:19:26;;;;;;;;;;;;;;;20.27;100.00;98028.09;5006258;28;20377;-68
2021/07/06 03:21:52;;;;;;;;;;;;;;;20.42;100.00;98018.06;5023831;28;20981;-67
2021/07/06 03:24:17;;;;;;;;;;;;;;;20.33;100.00;98008.41;5023914;28;19921;-67
2021/07/06 03:26:42;;;;;;;;;;;;;;;20.27;100.00;98011.56;5006018;28;19917;-68
2021/07/06 03:29:08;;;;;;;;;;;;;;;20.20;100.00;98026.13;5023254;28;19991;-67
2021/07/06 03:31:33;;;;;;;;;;;;;;;20.10;100.00;98017.44;5023878;28;19916;-67
2021/07/06 03:33:58;;;;;;;;;;;;;;;20.23;100.00;98015.41;5023607;28;19997;-67
2021/07/06 03:36:24;;;;;;;;;;;;;;;20.34;100.00;98004.00;5003223;28;19917;-67
2021/07/06 03:38:49;;;;;;;;;;;;;;;20.33;100.00;97997.94;5022764;28;20403;-67
2021/07/06 03:41:15;;;;;;;;;;;;;;;20.27;100.00;97998.50;5025283;28;19979;-67
2021/07/06 03:43:40;;;;;;;;;;;;;;;20.20;100.00;98005.22;5027401;28;19924;-67
2021/07/06 03:46:05;;;;;;;;;;;;;;;20.48;100.00;98014.91;5026200;28;19917;-67
2021/07/06 03:48:31;;;;;;;;;;;;;;;20.72;100.00;98007.66;5009892;28;20413;-68
2021/07/06 03:50:56;;;;;;;;;;;;;;;20.69;100.00;98008.75;5025848;28;19921;-68
2021/07/06 03:53:22;;;;;;;;;;;;;;;20.51;100.00;98007.75;5009499;28;19917;-68
2021/07/06 03:55:47;;;;;;;;;;;;;;;20.58;100.00;98001.88;5026077;28;20464;-68
2021/07/06 03:58:12;;;;;;;;;;;;;;;20.47;100.00;97999.34;5027072;28;20383;-68
2021/07/06 04:00:38;;;;;;;;;;;;;;;20.59;100.00;98005.31;5025784;28;19921;-68
2021/07/06 04:03:03;;;;;;;;;;;;;;;20.73;100.00;98004.06;5026330;28;19928;-68
2021/07/06 04:05:29;;;;;;;;;;;;;;;20.70;100.00;98004.34;5025909;28;20527;-68
2021/07/06 04:07:54;;;;;;;;;;;;;;;20.67;100.00;98006.28;5026332;28;19925;-68
2021/07/06 04:10:20;;;;;;;;;;;;;;;20.52;100.00;97991.91;5025767;28;19925;-68
2021/07/06 04:12:45;;;;;;;;;;;;;;;20.64;100.00;97995.25;5009316;28;20310;-68
2021/07/06 04:15:11;;;;;;;;;;;;;;;20.59;100.00;98000.91;5007802;28;19972;-68
2021/07/06 04:17:37;;;;;;;;;;;;;;;20.60;100.00;98006.97;5009318;28;20016;-68
2021/07/06 04:20:07;;;;;;;;;;;;;;;20.62;100.00;98002.44;4992549;28;19924;-69
2021/07/06 04:22:32;;;;;;;;;;;;;;;20.74;100.00;98000.50;5026429;28;20293;-68
2021/07/06 04:24:57;;;;;;;;;;;;;;;20.86;100.00;98000.22;5008483;28;20008;-68
2021/07/06 04:27:23;;;;;;;;;;;;;;;20.71;100.00;97993.75;5026716;28;20306;-68
2021/07/06 04:29:49;;;;;;;;;;;;;;;20.73;100.00;97997.03;5008279;28;19963;-68
2021/07/06 04:32:16;;;;;;;;;;;;;;;20.74;100.00;98001.31;5006728;28;19928;-68
2021/07/06 04:34:42;;;;;;;;;;;;;;;20.87;100.00;97994.03;5008042;28;19929;-68
2021/07/06 04:37:07;;;;;;;;;;;;;;;20.91;100.00;97994.56;5026069;28;19917;-68
2021/07/06 04:39:33;;;;;;;;;;;;;;;21.33;100.00;98001.25;5025591;28;20444;-68
2021/07/06 04:41:58;;;;;;;;;;;;;;;20.97;100.00;98006.28;5025972;28;19943;-68
2021/07/06 04:44:23;;;;;;;;;;;;;;;21.05;100.00;97999.38;5026036;28;20439;-68
2021/07/06 04:46:49;;;;;;;;;;;;;;;20.77;100.00;97995.81;5008468;28;19913;-68
2021/07/06 04:49:14;;;;;;;;;;;;;;;21.02;100.00;97998.81;5008464;28;20359;-68
2021/07/06 04:51:39;;;;;;;;;;;;;;;21.04;100.00;97978.56;5025537;28;20378;-68
2021/07/06 04:54:05;;;;;;;;;;;;;;;21.36;100.00;97985.25;5024914;28;20027;-68
2021/07/06 04:56:30;;;;;;;;;;;;;;;21.57;100.00;97988.50;5026722;28;19944;-68
2021/07/06 04:58:56;;;;;;;;;;;;;;;21.43;100.00;97981.94;5008321;28;19917;-68
2021/07/06 05:01:21;;;;;;;;;;;;;;;21.31;100.00;97983.06;5025785;28;20044;-68
2021/07/06 05:03:49;;;;;;;;;;;;;;;21.40;100.00;97986.63;5007773;28;20014;-68
2021/07/06 05:06:15;;;;;;;;;;;;;;;21.28;100.00;97975.50;4992116;28;20004;-68
2021/07/06 05:08:41;;;;;;;;;;;;;;;21.57;100.00;97967.56;5006649;28;19920;-67
2021/07/06 05:11:06;;;;;;;;;;;;;;;21.75;100.00;97972.03;5007665;28;19963;-68
2021/07/06 05:13:32;;;;;;;;;;;;;;;21.70;100.00;97962.00;5025100;28;20320;-68
2021/07/06 05:15:58;;;;;;;;;;;;;;;21.76;100.00;97965.81;5025449;28;19913;-68
2021/07/06 05:18:23;;;;;;;;;;;;;;;22.14;100.00;97959.53;4991495;28;19972;-68
2021/07/06 05:20:49;;;;;;;;;;;;;;;22.31;100.00;97952.72;5025070;28;19945;-68
2021/07/06 05:23:14;;;;;;;;;;;;;;;22.05;100.00;97945.50;5024490;28;20390;-68
2021/07/06 05:25:40;;;;;;;;;;;;;;;22.49;100.00;97950.91;5006397;28;20400;-68
2021/07/06 05:28:05;;;;;;;;;;;;;;;22.41;100.00;97945.59;5023999;28;19964;-68
2021/07/06 05:30:31;;;;;;;;;;;;;;;22.38;100.00;97943.28;5006022;28;19921;-68
2021/07/06 05:32:57;;;;;;;;;;;;;;;22.00;100.00;97947.75;5006688;28;20307;-68
2021/07/06 05:35:23;;;;;;;;;;;;;;;22.03;100.00;97947.50;5025473;28;20295;-68
2021/07/06 05:37:48;;;;;;;;;;;;;;;22.49;100.00;97945.66;5006924;28;19925;-68
2021/07/06 05:40:14;;;;;;;;;;;;;;;22.11;100.00;97950.19;5024555;28;19917;-68
2021/07/06 05:42:39;;;;;;;;;;;;;;;21.95;100.00;97955.25;5006921;28;19916;-68
2021/07/06 05:45:07;;;;;;;;;;;;;;;21.99;100.00;97947.94;4990852;28;19923;-68
2021/07/06 05:47:35;;;;;;;;;;;;;;;22.02;100.00;97948.44;5024841;28;19924;-68
2021/07/06 05:50:01;;;;;;;;;;;;;;;21.88;100.00;97959.44;5007967;28;19913;-68
2021/07/06 05:52:27;;;;;;;;;;;;;;;22.12;100.00;97957.09;5024718;28;19923;-68
2021/07/06 05:54:53;;;;;;;;;;;;;;;22.24;100.00;97964.78;5006817;28;19917;-68
2021/07/06 05:57:19;;;;;;;;;;;;;;;22.31;99.67;97979.75;5006571;28;19936;-68
2021/07/06 05:59:44;;;;;;;;;;;;;;;22.49;97.95;97985.03;5006799;28;19921;-67
2021/07/06 06:02:09;;;;;;;;;;;;;;;22.31;99.22;97986.81;5024695;28;19913;-67
2021/07/06 06:04:35;;;;;;;;;;;;;;;22.22;100.00;97990.31;5024185;28;19941;-68
2021/07/06 06:07:00;;;;;;;;;;;;;;;22.39;100.00;97997.38;5007059;28;20430;-68
2021/07/06 06:09:26;;;;;;;;;;;;;;;22.60;98.75;98006.75;5024149;28;19921;-68
2021/07/06 06:11:51;;;;;;;;;;;;;;;22.71;97.94;98003.91;5024414;28;20410;-68
2021/07/06 06:14:16;;;;;;;;;;;;;;;22.95;98.34;98019.06;5006191;28;19916;-68
2021/07/06 06:16:42;;;;;;;;;;;;;;;23.02;99.24;98040.31;4990335;28;20037;-68
2021/07/06 06:19:07;;;;;;;;;;;;;;;23.43;96.68;98051.94;5021015;28;19925;-68
2021/07/06 06:21:33;;;;;;;;;;;;;;;23.16;100.00;98055.53;5005836;28;19924;-68
2021/07/06 06:23:59;;;;;;;;;;;;;;;23.39;94.66;98064.56;5022563;28;20568;-68
2021/07/06 06:26:24;;;;;;;;;;;;;;;23.10;97.19;98066.63;5022145;28;19932;-68
2021/07/06 06:28:49;;;;;;;;;;;;;;;22.94;100.00;98068.13;5005757;28;19921;-68
2021/07/06 06:31:17;;;;;;;;;;;;;;;22.87;100.00;98077.56;5005314;28;19921;-68
2021/07/06 06:33:42;;;;;;;;;;;;;;;22.54;100.00;98081.66;5023437;28;20622;-68
2021/07/06 06:36:07;;;;;;;;;;;;;;;22.36;100.00;98084.25;4989801;28;19932;-68
2021/07/06 06:38:33;;;;;;;;;;;;;;;22.57;100.00;98086.59;5004413;28;19929;-68
2021/07/06 06:40:58;;;;;;;;;;;;;;;22.21;100.00;98098.78;5005348;28;19928;-68
2021/07/06 06:43:23;;;;;;;;;;;;;;;22.10;100.00;98110.25;5021979;28;19960;-68
2021/07/06 06:45:49;;;;;;;;;;;;;;;22.63;100.00;98096.53;5005630;28;19951;-68
2021/07/06 06:48:14;;;;;;;;;;;;;;;22.14;100.00;98107.22;5022142;28;19932;-68
2021/07/06 06:50:39;;;;;;;;;;;;;;;21.61;100.00;98118.28;5022792;28;19925;-68
2021/07/06 06:53:05;;;;;;;;;;;;;;;21.83;100.00;98122.38;5004970;28;19921;-68
2021/07/06 06:55:30;;;;;;;;;;;;;;;21.98;100.00;98127.97;5005066;28;20485;-68
2021/07/06 06:57:56;;;;;;;;;;;;;;;21.66;100.00;98121.28;5023121;28;19940;-68
2021/07/06 07:00:21;;;;;;;;;;;;;;;21.60;100.00;98123.66;5023479;28;20569;-68
2021/07/06 07:02:49;;;;;;;;;;;;;;;21.85;100.00;98122.22;5006147;28;20375;-68
2021/07/06 07:05:14;;;;;;;;;;;;;;;21.80;100.00;98111.34;5005635;28;19921;-68
2021/07/06 07:07:40;;;;;;;;;;;;;;;21.70;100.00;98111.38;4995817;28;19944;-68
2021/07/06 07:10:05;;;;;;;;;;;;;;;21.92;100.00;98112.84;5005620;28;19967;-68
2021/07/06 07:12:31;;;;;;;;;;;;;;;22.02;100.00;98103.13;5004991;28;20998;-68
2021/07/06 07:14:57;;;;;;;;;;;;;;;21.79;100.00;98102.66;5005477;28;19971;-68
2021/07/06 07:17:23;;;;;;;;;;;;;;;22.03;100.00;98103.94;5026675;28;19947;-68
2021/07/06 07:19:48;;;;;;;;;;;;;;;22.06;100.00;98096.63;5026312;28;19957;-68
2021/07/06 07:22:14;;;;;;;;;;;;;;;21.97;100.00;98094.88;5008707;28;19917;-68
2021/07/06 07:24:39;;;;;;;;;;;;;;;21.84;100.00;98099.59;5026671;28;19921;-68
2021/07/06 07:27:05;;;;;;;;;;;;;;;21.89;100.00;98106.06;5025854;28;19921;-68
2021/07/06 07:29:30;;;;;;;;;;;;;;;21.76;100.00;98112.59;5025633;28;20561;-68
2021/07/06 07:31:55;;;;;;;;;;;;;;;21.69;100.00;98110.56;5003704;28;20393;-69
2021/07/06 07:34:21;;;;;;;;;;;;;;;21.99;100.00;98100.81;5023500;28;20194;-68
2021/07/06 07:36:47;;;;;;;;;;;;;;;21.69;100.00;98109.69;5007365;28;20287;-69
2021/07/06 07:39:12;;;;;;;;;;;;;;;21.68;100.00;98116.75;5024759;28;19952;-69
2021/07/06 07:41:38;;;;;;;;;;;;;;;21.41;100.00;98108.78;5025136;28;19925;-68
2021/07/06 07:44:03;;;;;;;;;;;;;;;21.43;100.00;98122.56;5026530;28;19924;-68
2021/07/06 07:46:30;;;;;;;;;;;;;;;21.56;100.00;98115.25;5008320;28;19925;-69
2021/07/06 07:48:55;;;;;;;;;;;;;;;21.23;100.00;98114.72;5007791;28;19921;-69
2021/07/06 07:51:21;;;;;;;;;;;;;;;21.42;100.00;98115.69;5025410;28;19917;-69
2021/07/06 07:53:46;;;;;;;;;;;;;;;21.44;100.00;98111.13;5008786;28;19924;-68
2021/07/06 07:56:12;;;;;;;;;;;;;;;21.47;100.00;98108.25;5008881;28;19921;-69
2021/07/06 07:58:37;;;;;;;;;;;;;;;21.00;100.00;98108.06;5026816;28;20015;-69
2021/07/06 08:01:03;;;;;;;;;;;;;;;21.21;100.00;98103.53;5007378;28;19921;-69
2021/07/06 08:03:28;;;;;;;;;;;;;;;21.45;100.00;98099.69;5006431;28;20004;-69
2021/07/06 08:05:54;;;;;;;;;;;;;;;21.37;100.00;98107.38;5007021;28;19960;-69
2021/07/06 08:08:19;;;;;;;;;;;;;;;21.26;100.00;98111.00;5023140;28;20362;-69
2021/07/06 08:10:51;;;;;;;;;;;;;;;21.00;100.00;98131.63;5008127;28;19917;-69
2021/07/06 08:13:16;;;;;;;;;;;;;;;20.98;100.00;98144.03;5007895;28;19917;-68
2021/07/06 08:15:42;;;;;;;;;;;;;;;21.24;100.00;98134.69;5007164;28;19967;-69
2021/07/06 08:18:07;;;;;;;;;;;;;;;20.99;100.00;98122.13;5024098;28;19936;-69
2021/07/06 08:20:32;;;;;;;;;;;;;;;20.91;100.00;98101.88;5024632;28;19929;-69
2021/07/06 08:22:58;;;;;;;;;;;;;;;21.06;100.00;98099.69;5023554;28;20292;-69
2021/07/06 08:25:25;;;;;;;;;;;;;;;20.85;100.00;98110.28;5024701;28;19967;-69
2021/07/06 08:27:50;;;;;;;;;;;;;;;20.78;100.00;98086.44;5023448;28;20456;-69
2021/07/06 08:30:16;;;;;;;;;;;;;;;20.77;100.00;98048.13;5025157;28;19917;-69
2021/07/06 08:32:41;;;;;;;;;;;;;;;20.04;100.00;98021.41;5024566;28;19929;-68
2021/07/06 08:35:07;;;;;;;;;;;;;;;20.20;100.00;98002.59;5024218;28;20004;-68
2021/07/06 08:37:32;;;;;;;;;;;;;;;20.19;100.00;98000.97;5023171;28;19913;-68
2021/07/06 08:39:59;;;;;;;;;;;;;;;20.02;100.00;97958.81;5023805;28;20297;-69
2021/07/06 08:42:25;;;;;;;;;;;;;;;20.03;100.00;97954.44;5023919;28;19917;-68
2021/07/06 08:44:50;;;;;;;;;;;;;;;19.80;100.00;97953.81;5007055;28;20789;-69
2021/07/06 08:47:16;;;;;;;;;;;;;;;19.64;100.00;97959.50;5025334;28;19963;-69
2021/07/06 08:49:41;;;;;;;;;;;;;;;19.75;100.00;97961.22;5008309;28;20237;-69
2021/07/06 08:52:07;;;;;;;;;;;;;;;19.67;100.00;97961.84;4991969;28;19917;-68
2021/07/06 08:54:32;;;;;;;;;;;;;;;19.77;100.00;97961.91;5007837;28;19924;-69
2021/07/06 08:56:58;;;;;;;;;;;;;;;20.28;100.00;97955.72;5026444;28;19920;-68
2021/07/06 08:59:23;;;;;;;;;;;;;;;19.63;100.00;97948.22;5025875;28;19951;-69
2021/07/06 09:01:51;;;;;;;;;;;;;;;19.92;100.00;97931.03;5025675;28;19925;-69
2021/07/06 09:04:16;;;;;;;;;;;;;;;19.82;100.00;97878.75;5025791;28;19913;-69
2021/07/06 09:06:54;;;;;;;;;;;;;;;19.91;100.00;97836.13;5024906;28;19929;-69
2021/07/06 09:09:20;;;;;;;;;;;;;;;19.95;100.00;97834.88;5008164;28;20015;-69
2021/07/06 09:11:47;;;;;;;;;;;;;;;19.88;100.00;97810.25;5025212;28;19919;-69
2021/07/06 09:14:12;;;;;;;;;;;;;;;20.20;100.00;97856.22;5025083;28;19925;-68
2021/07/06 09:16:38;;;;;;;;;;;;;;;20.45;100.00;97855.63;5025242;28;19971;-69
2021/07/06 09:19:22;;;;;;;;;;;;;;;20.27;100.00;97878.22;5006829;28;20034;-69
2021/07/06 09:21:48;;;;;;;;;;;;;;;20.40;100.00;97893.63;5007391;28;19917;-68
2021/07/06 09:24:23;;;;;;;;;;;;;;;20.45;100.00;97907.13;5008017;28;19985;-67
2021/07/06 09:26:48;;;;;;;;;;;;;;;20.64;100.00;97924.63;4991554;28;19943;-68
2021/07/06 09:29:15;;;;;;;;;;;;;;;20.74;100.00;97937.72;5024725;28;19921;-68
2021/07/06 09:31:41;;;;;;;;;;;;;;;20.65;100.00;97934.13;5025223;28;19921;-67
2021/07/06 09:34:07;;;;;;;;;;;;;;;20.92;100.00;97935.22;5006988;28;20307;-68
2021/07/06 09:36:49;;;;;;;;;;;;;;;21.10;100.00;97929.09;5007290;28;20358;-68
2021/07/06 09:39:15;;;;;;;;;;;;;;;21.22;100.00;97931.53;5006761;28;19928;-68
2021/07/06 09:42:04;;;;;;;;;;;;;;;20.94;100.00;97928.00;5024729;28;19913;-68
2021/07/06 09:44:36;;;;;;;;;;;;;;;21.58;100.00;97936.97;5011590;28;19913;-68
2021/07/06 09:47:05;;;;;;;;;;;;;;;21.76;100.00;97931.75;5025315;28;20374;-68
2021/07/06 09:49:32;;;;;;;;;;;;;;;21.50;100.00;97935.88;5008271;28;20037;-68
2021/07/06 09:51:58;;;;;;;;;;;;;;;21.65;100.00;97936.22;5007837;28;19913;-67
2021/07/06 09:54:24;;;;;;;;;;;;;;;21.87;100.00;97931.56;4991735;28;19971;-68
2021/07/06 09:56:51;;;;;;;;;;;;;;;22.05;100.00;97940.28;5007519;28;19939;-68
2021/07/06 09:59:16;;;;;;;;;;;;;;;21.80;100.00;97940.97;5025715;28;19924;-68
2021/07/06 10:01:54;;;;;;;;;;;;;;;22.02;100.00;97958.94;5025224;28;19917;-68
2021/07/06 10:04:26;;;;;;;;;;;;;;;22.52;100.00;97937.50;5007946;28;19917;-68
2021/07/06 10:06:53;;;;;;;;;;;;;;;22.89;100.00;97939.09;5007947;28;22090;-68
2021/07/06 10:09:18;;;;;;;;;;;;;;;22.21;100.00;97952.75;5007855;28;20059;-68
2021/07/06 10:11:44;;;;;;;;;;;;;;;22.72;100.00;97955.72;5024911;28;20008;-68
2021/07/06 10:14:09;;;;;;;;;;;;;;;22.64;100.00;97961.69;5008193;28;19913;-68
2021/07/06 10:16:37;;;;;;;;;;;;;;;23.09;100.00;97991.47;5007336;28;19914;-68
2021/07/06 10:19:02;;;;;;;;;;;;;;;22.92;100.00;97986.06;5008058;28;20271;-68
2021/07/06 10:21:27;;;;;;;;;;;;;;;23.13;100.00;98005.94;5005816;28;19917;-68
2021/07/06 10:23:53;;;;;;;;;;;;;;;23.03;100.00;98013.06;5021471;28;20731;-68
2021/07/06 10:26:27;;;;;;;;;;;;;;;23.00;100.00;98037.84;5005527;28;19983;-67
2021/07/06 10:28:53;;;;;;;;;;;;;;;22.92;100.00;98043.81;5004389;28;19917;-67
2021/07/06 10:31:19;;;;;;;;;;;;;;;23.18;100.00;98029.94;5022227;28;19971;-67
2021/07/06 10:33:46;;;;;;;;;;;;;;;23.96;100.00;98032.56;5004775;28;19917;-68
2021/07/06 10:36:13;;;;;;;;;;;;;;;24.09;100.00;98041.81;5004620;28;19970;-67
2021/07/06 10:38:40;;;;;;;;;;;;;;;24.31;100.00;98050.94;5021735;28;19917;-68
2021/07/06 10:41:06;;;;;;;;;;;;;;;24.58;100.00;98042.81;5004717;28;20950;-68
2021/07/06 10:43:38;;;;;;;;;;;;;;;24.13;100.00;98054.50;5004300;28;20184;-67
2021/07/06 10:46:32;;;;;;;;;;;;;;;23.66;100.00;98039.13;5023057;28;20007;-68
2021/07/06 10:49:04;;;;;;;;;;;;;;;23.84;100.00;98054.03;5022284;28;20007;-68
2021/07/06 10:51:33;;;;;;;;;;;;;;;23.73;100.00;98058.53;5004631;28;20016;-68
2021/07/06 10:54:08;;;;;;;;;;;;;;;23.27;100.00;98052.66;5026447;28;20007;-68
2021/07/06 10:56:34;;;;;;;;;;;;;;;23.67;100.00;98064.41;5008881;28;19924;-68
2021/07/06 10:59:00;;;;;;;;;;;;;;;23.97;100.00;98075.44;5025358;28;19964;-67
2021/07/06 11:01:38;;;;;;;;;;;;;;;23.83;100.00;98073.41;5008561;28;19917;-68
2021/07/06 11:04:08;;;;;;;;;;;;;;;23.45;100.00;98064.94;5025234;28;19917;-67
2021/07/06 11:06:45;;;;;;;;;;;;;;;23.20;100.00;98074.44;5008046;28;20008;-68
2021/07/06 11:09:29;;;;;;;;;;;;;;;22.97;100.00;98073.06;5026550;28;19917;-67
2021/07/06 11:12:14;;;;;;;;;;;;;;;23.19;100.00;98078.84;5023841;28;20380;-68
2021/07/06 11:14:47;;;;;;;;;;;;;;;23.69;100.00;98072.97;4983583;28;19920;-69
2021/07/06 11:17:13;;;;;;;;;;;;;;;23.80;100.00;98070.09;5024692;28;19927;-68
2021/07/06 11:19:39;;;;;;;;;;;;;;;24.14;100.00;98077.19;4991687;28;20278;-68
2021/07/06 11:22:08;;;;;;;;;;;;;;;24.27;100.00;98071.50;5008016;28;20329;-67
2021/07/06 11:24:41;;;;;;;;;;;;;;;24.16;100.00;98072.59;4990519;28;20621;-68
2021/07/06 11:27:06;;;;;;;;;;;;;;;24.51;100.00;98072.56;5024892;28;20012;-69
2021/07/06 11:29:36;;;;;;;;;;;;;;;24.31;100.00;98066.72;4990692;28;20473;-68
2021/07/06 11:32:07;;;;;;;;;;;;;;;24.48;100.00;98073.72;4990687;28;19913;-68
2021/07/06 11:34:33;;;;;;;;;;;;;;;25.01;97.45;98064.59;5021365;28;20440;-68
2021/07/06 11:37:02;;;;;;;;;;;;;;;24.92;94.25;98068.19;5006431;28;19917;-68
2021/07/06 11:39:27;;;;;;;;;;;;;;;24.81;97.19;98047.44;4976924;28;19917;-67
2021/07/06 11:41:53;;;;;;;;;;;;;;;24.62;100.00;98056.47;5007038;28;20379;-68
2021/07/06 11:44:19;;;;;;;;;;;;;;;25.29;93.85;98066.91;5024246;28;19917;-68
2021/07/06 11:46:44;;;;;;;;;;;;;;;24.23;96.20;98059.63;5025401;28;19917;-68
2021/07/06 11:49:09;;;;;;;;;;;;;;;25.78;91.21;98060.75;5024502;28;19996;-67
2021/07/06 11:51:39;;;;;;;;;;;;;;;26.41;88.34;98057.25;5022332;28;19924;-68
2021/07/06 11:54:04;;;;;;;;;;;;;;;26.07;85.55;98060.22;5007115;28;19936;-68
2021/07/06 11:56:32;;;;;;;;;;;;;;;26.60;82.41;98053.38;5007427;28;19913;-68
2021/07/06 11:58:57;;;;;;;;;;;;;;;26.66;80.44;98060.59;5005223;28;20942;-68
2021/07/06 12:01:23;;;;;;;;;;;;;;;26.31;83.53;98055.81;5022413;28;19941;-68
2021/07/06 12:03:48;;;;;;;;;;;;;;;26.49;80.22;98054.56;5024290;28;19913;-67
2021/07/06 12:06:17;;;;;;;;;;;;;;;25.01;90.17;98056.69;4991100;28;19986;-67
2021/07/06 12:08:43;;;;;;;;;;;;;;;25.89;88.19;98052.53;5006188;28;20379;-68
2021/07/06 12:11:10;;;;;;;;;;;;;;;26.22;87.31;98063.75;5007019;28;19924;-67
2021/07/06 12:13:36;;;;;;;;;;;;;;;26.99;81.70;98059.56;5006282;28;19947;-67
2021/07/06 12:16:04;;;;;;;;;;;;;;;26.21;80.60;98067.41;4990837;28;19917;-68
2021/07/06 12:18:30;;;;;;;;;;;;;;;26.60;80.27;98066.56;5006270;28;20403;-67
2021/07/06 12:20:57;;;;;;;;;;;;;;;27.74;78.95;98067.50;5025063;28;19925;-68
2021/07/06 12:23:22;;;;;;;;;;;;;;;26.39;81.82;98075.09;5006580;28;19921;-68
2021/07/06 12:25:48;;;;;;;;;;;;;;;27.64;73.67;98071.38;5007724;28;19917;-67
2021/07/06 12:28:14;;;;;;;;;;;;;;;26.65;74.82;98082.72;5006410;28;19956;-66
2021/07/06 12:30:39;;;;;;;;;;;;;;;25.95;76.31;98082.66;5006793;28;19928;-68
2021/07/06 12:33:08;;;;;;;;;;;;;;;26.08;76.44;98088.22;5022931;28;19924;-67